Dados recebidos via LoRaWAN

Esta tabela mostra os últimos 10 pontos (chirps - Compressed High Intensity Radar Pulse) de diferentes famílias de sensores, recebidos pelos gateways LoRa instalados na Torre do Lidador e na Universidade da Maia.

Rastreadores GPS

Data Device CNT Gateway RSSI SNR Lat, Lng Temp
(°C)
Bat.
(Tensão, V)
Pressão
(mbar)
Humidade relativa
(%)
2024-05-18 08:25:13Rak10700-D1 (LoraWan)2982 AA25//9QTmA=-108 7.0  --22.2 4.3 1004.0 55.0 
2024-05-18 08:24:43Rak10700-D1 (LoraWan)2981 AA25//9QTmA=-117 -0.5  --22.2 4.3 1004.0 55.0 
2024-05-18 08:24:13Rak10700-D1 (LoraWan)2980 AA25//9QTmA=-109 6.5  --22.2 4.3 1004.0 55.0 
2024-05-18 08:23:43Rak10700-D1 (LoraWan)2979 AA25//9QTmA=-119 -0.8  --22.2 4.3 1004.0 55.0 
2024-05-18 08:23:13Rak10700-D1 (LoraWan)2978 AA25//9QTmA=-115 1.8  --22.2 4.4 1004.0 55.0 
2024-05-18 08:22:43Rak10700-D1 (LoraWan)2977 AA25//9QTmA=-119 -0.2  --22.2 4.3 1004.0 55.0 
2024-05-18 08:22:13Rak10700-D1 (LoraWan)2976 AA25//9QTmA=-113 7.0  --22.2 4.3 1004.0 55.0 
2024-05-18 08:21:13Rak10700-D1 (LoraWan)2974 AA25//9QTmA=-117 5.8  --22.1 4.3 1004.0 55.0 
2024-05-18 08:20:13Rak10700-D1 (LoraWan)2972 AA25//9QTmA=-113 5.5  --22.1 4.3 1004.0 55.0 
2024-05-18 08:19:43Rak10700-D1 (LoraWan)2971 AA25//9QTmA=-107 7.2  --22.1 4.3 1004.0 55.0 
  1. A representação geoespacial dos dados relativos a estes rastreadores GPS está disponível em https://baze.cm-maia.pt/BaZe/base2b.htm?e0=GPS%20Teste%20(RT)%20plus
  2. Dados disponíveis em https://baze.cm-maia.pt/BaZe/api/x4rt.php?id=gpst1
.

Caudalímetros

Datadevice CNT Gateway rssiloRaSNR FOS volume alarme
2024-05-24 19:08:31WT2232160000138 (LoraWan)422 AA25//9QTmA=-120 -16.5 60000 0.48 1024 
2024-05-24 13:27:44WT2232160000138 (LoraWan)421 AA25//9QTmA=-118 -14.0 60000 0.475 1024 
2024-05-23 06:39:04WT2232160000138 (LoraWan)416 AA25//9QTmA=-120 -19.0 60000 0.452 1024 
2024-05-22 14:19:58WT2232160000138 (LoraWan)413 AA25//9QTmA=-121 -19.0 60000 0.435 1024 
2024-05-22 03:01:50WT2232160000138 (LoraWan)411 AA25//9QTmA=-121 -17.8 60000 0.43 1024 
2024-05-18 14:05:27WT2232160000138 (LoraWan)397 AA25//9QTmA=-121 -18.0 60000 0.39 1024 
2024-05-17 21:56:17WT2232160000138 (LoraWan)394 AA25//9QTmA=-121 -19.2 60000 0.385 1024 
2024-05-16 19:19:28WT2232160000138 (LoraWan)390 AA25//9QTmA=-120 -18.0 60000 0.372 1024 
2024-05-15 15:14:45WT2232160000138 (LoraWan)385 AA25//9QTmA=-121 -14.8 60000 0.346 1024 
2024-05-12 19:26:31WT2232160000138 (LoraWan)374 AA25//9QTmA=-120 -16.8 60000 0.309 1024 
  1. Dados disponíveis em https://baze.cm-maia.pt/BaZe/api/x4rt.php?id=DLHT52D1

Dispositivos DLHT52

DatadeviceCNTGatewayRSSISNRTempHum Rel
2024-05-25 15:45:44DLHT52D2 (LoraWan)3190 AA25//9QTmA=-115 2.2 21.6 56.6 
2024-05-25 15:38:55DLHT52D3 (LoraWan)3167 AA25//9QTmA=-114 -1.8 21.4 58.3 
2024-05-25 15:38:37DLHT52D1 (LoraWan)2422 AA25//9QTmA=-113 3.0 22.8 54.0 
2024-05-25 15:25:44DLHT52D2 (LoraWan)3189 AA25//9QTmA=-115 3.0 21.5 56.9 
2024-05-25 15:18:55DLHT52D3 (LoraWan)3166 AA25//9QTmA=-111 4.5 21.3 58.3 
2024-05-25 15:05:44DLHT52D2 (LoraWan)3188 AA25//9QTmA=-112 3.2 21.5 56.7 
2024-05-25 14:58:58DLHT52D3 (LoraWan)3165 AA25//9QTmA=-113 1.8 21.3 58.3 
2024-05-25 14:58:37DLHT52D1 (LoraWan)2420 AA25//9QTmA=-119 -1.5 22.7 54.0 
2024-05-25 14:45:44DLHT52D2 (LoraWan)3187 AA25//9QTmA=-112 2.0 21.4 56.7 
2024-05-25 14:38:55DLHT52D3 (LoraWan)3164 AA25//9QTmA=-111 4.5 21.2 58.2 

Dispositivos DLHT65

DatadeviceCNTGatewayRSSISNRTempTemp_extbateriaHum Rel
2024-05-18 08:13:46DLHT65ND1 (LoraWan)1162 -118 1.8 18.0 18.0 3.05 56.6 
2024-05-18 07:53:46DLHT65ND1 (LoraWan)1161 -115 -2.5 18.0 18.0 3.05 56.5 
2024-05-18 07:52:59DLHT65ND2 (LoraWan)1787 -115 0.2 17.8 18.0 3.05 59.7 
2024-05-18 07:33:47DLHT65ND1 (LoraWan)1160 -119 -5.5 17.9 18.0 3.06 56.3 
2024-05-18 07:13:47DLHT65ND1 (LoraWan)1159 -115 0.2 17.9 18.0 3.05 56.1 
2024-05-18 07:13:00DLHT65ND2 (LoraWan)1785 -116 2.5 17.8 17.0 3.05 59.4 
2024-05-18 06:53:47DLHT65ND1 (LoraWan)1158 -114 3.5 18.0 18.0 3.05 55.9 
2024-05-18 06:53:00DLHT65ND2 (LoraWan)1784 -115 2.0 17.8 17.0 3.05 59.3 
2024-05-18 06:33:47DLHT65ND1 (LoraWan)1157 -118 3.0 17.9 18.0 3.06 55.7 
2024-05-18 06:33:00DLHT65ND2 (LoraWan)1783 -116 1.5 17.8 17.0 3.05 59.2 

Server datetime: 25-05-2024 15:51:11
D4Maia logo | Stop Vespa | FActiva | Piscg | suporte.dados@cm-maia.pt | D4Maia, 2024